createdAt,value
2023-05-14T00:00:25.658Z,994.00
2023-05-14T00:01:25.562Z,1002.00
2023-05-14T00:02:25.697Z,1006.00
2023-05-14T00:03:25.843Z,1002.00
2023-05-14T00:04:25.870Z,987.00
2023-05-14T00:05:25.918Z,989.00
2023-05-14T00:06:26.017Z,990.00
2023-05-14T00:07:26.107Z,990.00
2023-05-14T00:08:26.215Z,992.00
2023-05-14T00:09:26.283Z,992.00
2023-05-14T00:10:26.376Z,990.00
2023-05-14T00:11:26.456Z,988.00
2023-05-14T00:12:26.525Z,987.00
2023-05-14T00:13:26.625Z,981.00
2023-05-14T00:14:26.752Z,986.00
2023-05-14T00:15:26.783Z,1001.00
2023-05-14T00:16:26.882Z,994.00
2023-05-14T00:17:26.973Z,993.00
2023-05-14T00:18:27.053Z,987.00
2023-05-14T00:19:27.090Z,999.00
2023-05-14T00:20:27.207Z,992.00
2023-05-14T00:21:27.259Z,984.00
2023-05-14T00:22:27.361Z,994.00
2023-05-14T00:23:27.425Z,982.00
2023-05-14T00:24:27.512Z,991.00
2023-05-14T00:25:27.599Z,978.00
2023-05-14T00:26:27.686Z,976.00
2023-05-14T00:27:27.784Z,989.00
2023-05-14T00:28:27.865Z,968.00
2023-05-14T00:29:27.947Z,977.00
2023-05-14T00:30:28.029Z,984.00
2023-05-14T00:31:28.152Z,976.00
2023-05-14T00:32:28.223Z,976.00
2023-05-14T00:33:28.274Z,975.00
2023-05-14T00:34:28.368Z,982.00
2023-05-14T00:35:28.464Z,979.00
2023-05-14T00:36:28.515Z,977.00
2023-05-14T00:37:28.607Z,976.00
2023-05-14T00:38:28.683Z,970.00
2023-05-14T00:39:28.762Z,979.00
2023-05-14T00:40:28.861Z,974.00
2023-05-14T00:41:28.935Z,969.00
2023-05-14T00:42:29.033Z,980.00
2023-05-14T00:43:29.106Z,973.00
2023-05-14T00:44:29.192Z,975.00
2023-05-14T00:45:29.279Z,965.00
2023-05-14T00:47:29.502Z,964.00
2023-05-14T00:48:29.525Z,976.00
2023-05-14T00:49:29.617Z,959.00
2023-05-14T00:50:29.719Z,976.00
2023-05-14T00:51:29.767Z,965.00
2023-05-14T00:52:29.858Z,964.00
2023-05-14T00:53:29.942Z,967.00
2023-05-14T00:54:30.022Z,960.00
2023-05-14T00:55:30.096Z,965.00
2023-05-14T00:56:30.165Z,953.00
2023-05-14T00:57:30.262Z,972.00
2023-05-14T00:58:30.348Z,957.00
2023-05-14T00:59:30.422Z,961.00
2023-05-14T01:00:30.521Z,958.00
2023-05-14T01:01:30.662Z,950.00
2023-05-14T01:02:30.792Z,962.00
2023-05-14T01:03:30.854Z,969.00
2023-05-14T01:04:30.843Z,949.00
2023-05-14T01:05:30.923Z,963.00
2023-05-14T01:06:31.006Z,961.00
2023-05-14T01:07:31.090Z,956.00
2023-05-14T01:08:31.173Z,958.00
2023-05-14T01:09:31.246Z,949.00
2023-05-14T01:10:31.343Z,959.00
2023-05-14T01:11:31.426Z,966.00
2023-05-14T01:12:31.498Z,941.00
2023-05-14T01:13:31.581Z,948.00
2023-05-14T01:14:31.652Z,947.00
2023-05-14T01:15:31.734Z,960.00
2023-05-14T01:16:31.853Z,948.00
2023-05-14T01:17:31.912Z,944.00
2023-05-14T01:18:32.010Z,955.00
2023-05-14T01:19:32.023Z,950.00
2023-05-14T01:20:32.104Z,939.00
2023-05-14T01:21:32.178Z,932.00
2023-05-14T01:22:32.258Z,952.00
2023-05-14T01:23:32.361Z,952.00
2023-05-14T01:24:32.436Z,948.00
2023-05-14T01:25:32.506Z,949.00
2023-05-14T01:26:32.576Z,945.00
2023-05-14T01:27:32.640Z,946.00
2023-05-14T01:28:32.725Z,933.00
2023-05-14T01:29:32.732Z,938.00
2023-05-14T01:30:32.798Z,943.00
2023-05-14T01:31:32.896Z,938.00
2023-05-14T01:32:32.929Z,939.00
2023-05-14T01:33:32.988Z,935.00
2023-05-14T01:34:33.058Z,939.00
2023-05-14T01:35:33.143Z,940.00
2023-05-14T01:36:33.373Z,934.00
2023-05-14T01:37:33.313Z,938.00
2023-05-14T01:38:33.392Z,934.00
2023-05-14T01:39:33.481Z,941.00
2023-05-14T01:40:33.549Z,938.00
2023-05-14T01:41:33.633Z,930.00
2023-05-14T01:42:33.716Z,943.00
2023-05-14T01:43:33.831Z,936.00
2023-05-14T01:44:33.869Z,936.00
2023-05-14T01:45:33.931Z,931.00
2023-05-14T01:46:34.166Z,933.00
2023-05-14T01:47:34.129Z,933.00
2023-05-14T01:48:34.215Z,938.00
2023-05-14T01:49:34.305Z,937.00
2023-05-14T01:50:34.396Z,922.00
2023-05-14T01:51:34.492Z,931.00
2023-05-14T01:52:34.579Z,922.00
2023-05-14T01:53:34.681Z,935.00
2023-05-14T01:54:34.775Z,924.00
2023-05-14T01:55:34.834Z,921.00
2023-05-14T01:56:34.914Z,937.00
2023-05-14T01:57:34.976Z,921.00
2023-05-14T01:58:35.060Z,926.00
2023-05-14T01:59:35.144Z,923.00
2023-05-14T02:00:35.189Z,926.00
2023-05-14T02:01:35.317Z,917.00
2023-05-14T02:02:35.379Z,911.00
2023-05-14T02:03:35.467Z,919.00
2023-05-14T02:04:35.522Z,918.00
2023-05-14T02:05:35.566Z,921.00
2023-05-14T02:06:35.655Z,918.00
2023-05-14T02:07:35.747Z,913.00
2023-05-14T02:08:35.802Z,913.00
2023-05-14T02:09:35.898Z,916.00
2023-05-14T02:10:36.441Z,916.00
2023-05-14T02:11:36.042Z,914.00
2023-05-14T02:12:36.122Z,926.00
2023-05-14T02:13:36.196Z,916.00
2023-05-14T02:14:36.261Z,917.00
2023-05-14T02:15:36.398Z,919.00
2023-05-14T02:16:36.443Z,918.00
2023-05-14T02:17:36.530Z,921.00
2023-05-14T02:18:36.649Z,921.00
2023-05-14T02:19:36.622Z,910.00
2023-05-14T02:20:36.698Z,917.00
2023-05-14T02:21:36.763Z,905.00
2023-05-14T02:22:36.815Z,921.00
2023-05-14T02:23:41.490Z,917.00
2023-05-14T02:24:37.921Z,918.00
2023-05-14T02:25:36.938Z,917.00
2023-05-14T02:26:36.942Z,918.00
2023-05-14T02:27:36.945Z,918.00
2023-05-14T02:28:36.978Z,920.00
2023-05-14T02:29:36.987Z,915.00
2023-05-14T02:30:37.030Z,913.00
2023-05-14T02:31:37.045Z,917.00
2023-05-14T02:32:37.156Z,914.00
2023-05-14T02:33:37.226Z,913.00
2023-05-14T02:34:37.272Z,921.00
2023-05-14T02:35:37.349Z,907.00
2023-05-14T02:36:37.436Z,912.00
2023-05-14T02:37:37.520Z,906.00
2023-05-14T02:38:37.611Z,908.00
2023-05-14T02:39:37.692Z,909.00
2023-05-14T02:40:37.763Z,910.00
2023-05-14T02:41:37.839Z,905.00
2023-05-14T02:42:37.908Z,900.00
2023-05-14T02:43:38.002Z,911.00
2023-05-14T02:44:38.060Z,892.00
2023-05-14T02:45:38.127Z,899.00
2023-05-14T02:46:38.183Z,902.00
2023-05-14T02:47:38.469Z,900.00
2023-05-14T02:48:38.245Z,909.00
2023-05-14T02:49:38.292Z,897.00
2023-05-14T02:50:38.388Z,891.00
2023-05-14T02:51:38.450Z,894.00
2023-05-14T02:52:38.532Z,896.00
2023-05-14T02:53:38.661Z,894.00
2023-05-14T02:54:38.721Z,900.00
2023-05-14T02:55:38.804Z,894.00
2023-05-14T02:56:38.873Z,888.00
2023-05-14T02:57:38.970Z,899.00
2023-05-14T02:58:39.044Z,907.00
2023-05-14T02:59:39.121Z,899.00
2023-05-14T03:00:39.252Z,884.00
2023-05-14T03:01:39.278Z,896.00
2023-05-14T03:02:39.404Z,882.00
2023-05-14T03:03:39.400Z,882.00
2023-05-14T03:04:39.471Z,892.00
2023-05-14T03:05:39.541Z,887.00
2023-05-14T03:06:39.642Z,897.00
2023-05-14T03:07:39.701Z,884.00
2023-05-14T03:08:39.750Z,891.00
2023-05-14T03:09:39.827Z,884.00
2023-05-14T03:10:39.909Z,875.00
2023-05-14T03:11:40.008Z,884.00
2023-05-14T03:12:40.022Z,889.00
2023-05-14T03:13:40.088Z,875.00
2023-05-14T03:14:40.129Z,871.00
2023-05-14T03:15:40.226Z,880.00
2023-05-14T03:16:40.389Z,884.00
2023-05-14T03:17:40.381Z,875.00
2023-05-14T03:18:40.454Z,887.00
2023-05-14T03:19:40.508Z,883.00
2023-05-14T03:20:40.604Z,887.00
2023-05-14T03:21:40.695Z,889.00
2023-05-14T03:22:40.770Z,892.00
2023-05-14T03:23:40.865Z,872.00
2023-05-14T03:24:40.940Z,890.00
2023-05-14T03:25:41.067Z,878.00
2023-05-14T03:26:41.126Z,875.00
2023-05-14T03:27:41.185Z,873.00
2023-05-14T03:28:41.238Z,885.00
2023-05-14T03:29:41.299Z,878.00
2023-05-14T03:30:41.402Z,872.00
2023-05-14T03:31:41.475Z,880.00
2023-05-14T03:32:41.593Z,866.00
2023-05-14T03:33:41.644Z,876.00
2023-05-14T03:34:41.708Z,877.00
2023-05-14T03:35:41.787Z,884.00
2023-05-14T03:36:41.871Z,873.00
2023-05-14T03:37:41.955Z,875.00
2023-05-14T03:38:42.020Z,873.00
2023-05-14T03:39:42.112Z,866.00
2023-05-14T03:40:42.179Z,870.00
2023-05-14T03:41:42.241Z,873.00
2023-05-14T03:42:42.313Z,865.00
2023-05-14T03:43:42.384Z,869.00
2023-05-14T03:44:42.427Z,862.00
2023-05-14T03:45:42.511Z,870.00
2023-05-14T03:46:42.607Z,877.00
2023-05-14T03:47:42.677Z,871.00
2023-05-14T03:48:42.808Z,865.00
2023-05-14T03:49:42.829Z,871.00
2023-05-14T03:50:42.865Z,874.00
2023-05-14T03:51:42.925Z,867.00
2023-05-14T03:52:42.993Z,863.00
2023-05-14T03:53:43.057Z,859.00
2023-05-14T03:54:43.148Z,858.00
2023-05-14T03:55:43.241Z,864.00
2023-05-14T03:56:43.326Z,872.00
2023-05-14T03:57:43.392Z,856.00
2023-05-14T03:58:43.441Z,862.00
2023-05-14T03:59:43.487Z,852.00
2023-05-14T04:00:43.554Z,863.00
2023-05-14T04:01:43.633Z,858.00
2023-05-14T04:02:43.903Z,855.00
2023-05-14T04:03:43.928Z,861.00
2023-05-14T04:04:43.893Z,860.00
2023-05-14T04:05:43.939Z,859.00
2023-05-14T04:06:44.015Z,854.00
2023-05-14T04:07:44.076Z,859.00
2023-05-14T04:08:44.156Z,862.00
2023-05-14T04:09:44.222Z,847.00
2023-05-14T04:10:44.307Z,840.00
2023-05-14T04:11:44.364Z,843.00
2023-05-14T04:12:44.400Z,854.00
2023-05-14T04:13:44.465Z,846.00
2023-05-14T04:14:44.517Z,858.00
2023-05-14T04:15:44.553Z,839.00
2023-05-14T04:16:44.661Z,849.00
2023-05-14T04:17:44.723Z,849.00
2023-05-14T04:18:44.784Z,851.00
2023-05-14T04:19:44.849Z,844.00
2023-05-14T04:20:44.945Z,846.00
2023-05-14T04:21:45.030Z,844.00
2023-05-14T04:22:45.102Z,841.00
2023-05-14T04:23:45.187Z,847.00
2023-05-14T04:24:45.261Z,839.00
2023-05-14T04:25:45.346Z,842.00
2023-05-14T04:26:45.433Z,848.00
2023-05-14T04:27:45.489Z,841.00
2023-05-14T04:28:45.564Z,843.00
2023-05-14T04:29:45.634Z,831.00
2023-05-14T04:30:45.718Z,848.00
2023-05-14T04:31:45.851Z,832.00
2023-05-14T04:32:45.922Z,835.00
2023-05-14T04:33:45.967Z,841.00
2023-05-14T04:34:46.050Z,835.00
2023-05-14T04:35:46.137Z,843.00
2023-05-14T04:36:46.213Z,837.00
2023-05-14T04:37:46.262Z,836.00
2023-05-14T04:38:46.335Z,844.00
2023-05-14T04:39:46.414Z,831.00
2023-05-14T04:40:46.474Z,828.00
2023-05-14T04:41:46.530Z,828.00
2023-05-14T04:42:46.562Z,841.00
2023-05-14T04:43:46.615Z,826.00
2023-05-14T04:44:46.667Z,843.00
2023-05-14T04:45:46.784Z,835.00
2023-05-14T04:46:46.885Z,830.00
2023-05-14T04:47:46.982Z,840.00
2023-05-14T04:48:46.971Z,846.00
2023-05-14T04:49:47.028Z,837.00
2023-05-14T04:50:47.064Z,830.00
2023-05-14T04:51:47.120Z,824.00
2023-05-14T04:52:47.168Z,827.00
2023-05-14T04:53:47.250Z,827.00
2023-05-14T04:54:47.330Z,830.00
2023-05-14T04:55:47.416Z,823.00
2023-05-14T04:56:47.474Z,832.00
2023-05-14T04:57:47.534Z,827.00
2023-05-14T04:58:47.634Z,830.00
2023-05-14T04:59:47.730Z,839.00
2023-05-14T05:00:47.916Z,829.00
2023-05-14T05:01:47.974Z,832.00
2023-05-14T05:02:48.054Z,846.00
2023-05-14T05:03:48.173Z,839.00
2023-05-14T05:04:48.180Z,825.00
2023-05-14T05:05:48.243Z,832.00
2023-05-14T05:06:48.305Z,823.00
2023-05-14T05:07:48.396Z,821.00
2023-05-14T05:08:48.456Z,833.00
2023-05-14T05:09:48.552Z,826.00
2023-05-14T05:10:48.633Z,836.00
2023-05-14T05:11:48.699Z,840.00
2023-05-14T05:12:48.739Z,822.00
2023-05-14T05:13:48.793Z,823.00
2023-05-14T05:14:48.886Z,826.00
2023-05-14T05:15:48.982Z,831.00
2023-05-14T05:16:49.034Z,835.00
2023-05-14T05:17:49.142Z,826.00
2023-05-14T05:18:49.224Z,828.00
2023-05-14T05:19:49.256Z,826.00
2023-05-14T05:20:49.331Z,828.00
2023-05-14T05:21:49.488Z,834.00
2023-05-14T05:22:49.478Z,833.00
2023-05-14T05:23:49.557Z,837.00
2023-05-14T05:24:50.164Z,831.00
2023-05-14T05:25:49.720Z,826.00
2023-05-14T05:26:49.812Z,827.00
2023-05-14T05:27:49.898Z,821.00
2023-05-14T05:28:49.972Z,826.00
2023-05-14T05:29:50.071Z,828.00
2023-05-14T05:30:50.157Z,822.00
2023-05-14T05:31:50.250Z,820.00
2023-05-14T05:32:50.384Z,821.00
2023-05-14T05:33:50.334Z,834.00
2023-05-14T05:34:50.394Z,828.00
2023-05-14T05:35:50.470Z,820.00
2023-05-14T05:36:50.538Z,821.00
2023-05-14T05:37:50.596Z,815.00
2023-05-14T05:38:50.665Z,820.00
2023-05-14T05:39:50.745Z,825.00
2023-05-14T05:40:50.920Z,818.00
2023-05-14T05:41:50.888Z,824.00
2023-05-14T05:42:51.008Z,828.00
2023-05-14T05:43:50.960Z,820.00
2023-05-14T05:44:51.008Z,820.00
2023-05-14T05:45:51.066Z,819.00
2023-05-14T05:46:51.278Z,818.00
2023-05-14T05:47:51.241Z,819.00
2023-05-14T05:48:51.263Z,823.00
2023-05-14T05:49:51.299Z,811.00
2023-05-14T05:50:51.428Z,830.00
2023-05-14T05:51:51.572Z,813.00
2023-05-14T05:52:51.480Z,820.00
2023-05-14T05:53:51.574Z,829.00
2023-05-14T05:54:51.613Z,807.00
2023-05-14T05:55:51.758Z,813.00
2023-05-14T05:56:51.742Z,816.00
2023-05-14T05:57:51.813Z,830.00
2023-05-14T05:58:51.887Z,818.00
2023-05-14T05:59:51.934Z,812.00
2023-05-14T06:00:52.027Z,821.00
2023-05-14T06:01:52.131Z,823.00
2023-05-14T06:02:52.168Z,812.00
2023-05-14T06:03:52.180Z,819.00
2023-05-14T06:04:52.259Z,814.00
2023-05-14T06:05:52.307Z,810.00
2023-05-14T06:06:52.301Z,824.00
2023-05-14T06:07:52.330Z,817.00
2023-05-14T06:08:52.386Z,824.00
2023-05-14T06:09:52.492Z,816.00
2023-05-14T06:10:52.587Z,815.00
2023-05-14T06:11:52.630Z,820.00
2023-05-14T06:12:52.705Z,815.00
2023-05-14T06:13:52.774Z,819.00
2023-05-14T06:14:52.841Z,815.00
2023-05-14T06:15:52.922Z,824.00
2023-05-14T06:16:53.140Z,814.00
2023-05-14T06:17:53.097Z,811.00
2023-05-14T06:18:53.206Z,820.00
2023-05-14T06:19:53.242Z,813.00
2023-05-14T06:20:53.312Z,820.00
2023-05-14T06:21:53.381Z,833.00
2023-05-14T06:22:53.457Z,824.00
2023-05-14T06:23:53.529Z,816.00
2023-05-14T06:24:53.636Z,819.00
2023-05-14T06:25:53.724Z,812.00
2023-05-14T06:26:53.789Z,816.00
2023-05-14T06:27:53.862Z,822.00
2023-05-14T06:28:53.948Z,809.00
2023-05-14T06:29:54.042Z,812.00
2023-05-14T06:30:54.116Z,812.00
2023-05-14T06:31:54.226Z,809.00
2023-05-14T06:32:54.376Z,824.00
2023-05-14T06:33:54.354Z,829.00
2023-05-14T06:34:54.454Z,822.00
2023-05-14T06:35:54.513Z,825.00
2023-05-14T06:36:54.608Z,817.00
2023-05-14T06:37:54.669Z,815.00
2023-05-14T06:38:54.734Z,815.00
2023-05-14T06:39:57.610Z,812.00
2023-05-14T06:40:54.839Z,820.00
2023-05-14T06:41:54.864Z,812.00
2023-05-14T06:42:54.878Z,822.00
2023-05-14T06:43:54.882Z,818.00
2023-05-14T06:44:55.033Z,820.00
2023-05-14T06:45:54.918Z,818.00
2023-05-14T06:46:54.943Z,816.00
2023-05-14T06:47:55.021Z,824.00
2023-05-14T06:48:56.226Z,812.00
2023-05-14T06:49:54.992Z,813.00
2023-05-14T06:50:55.004Z,815.00
2023-05-14T06:51:55.030Z,818.00
2023-05-14T06:52:55.038Z,812.00
2023-05-14T06:53:55.054Z,831.00
2023-05-14T06:54:55.073Z,822.00
2023-05-14T06:55:55.087Z,830.00
2023-05-14T06:56:55.108Z,816.00
2023-05-14T06:57:55.127Z,811.00
2023-05-14T06:58:55.125Z,817.00
2023-05-14T06:59:55.139Z,821.00
2023-05-14T07:00:55.154Z,814.00
2023-05-14T07:01:55.243Z,804.00
2023-05-14T07:02:55.199Z,810.00
2023-05-14T07:03:55.238Z,808.00
2023-05-14T07:04:55.228Z,812.00
2023-05-14T07:05:55.241Z,815.00
2023-05-14T07:06:55.268Z,810.00
2023-05-14T07:07:55.274Z,804.00
2023-05-14T07:08:55.292Z,811.00
2023-05-14T07:09:55.307Z,812.00
2023-05-14T07:10:55.344Z,815.00
2023-05-14T07:11:55.356Z,807.00
2023-05-14T07:12:55.373Z,812.00
2023-05-14T07:13:55.405Z,804.00
2023-05-14T07:14:55.406Z,804.00
2023-05-14T07:15:55.431Z,802.00
2023-05-14T07:16:55.517Z,802.00
2023-05-14T07:17:55.591Z,798.00
2023-05-14T07:18:55.567Z,799.00
2023-05-14T07:19:55.501Z,802.00
2023-05-14T07:20:55.519Z,794.00
2023-05-14T07:21:55.546Z,797.00
2023-05-14T07:22:55.554Z,806.00
2023-05-14T07:23:55.564Z,800.00
2023-05-14T07:24:55.604Z,798.00
2023-05-14T07:25:55.610Z,794.00
2023-05-14T07:26:55.707Z,793.00
2023-05-14T07:27:55.779Z,789.00
2023-05-14T07:28:55.873Z,794.00
2023-05-14T07:29:55.957Z,786.00
2023-05-14T07:30:56.059Z,793.00
2023-05-14T07:31:56.125Z,782.00
2023-05-14T07:32:56.415Z,775.00
2023-05-14T07:33:56.291Z,778.00
2023-05-14T07:34:56.366Z,774.00
2023-05-14T07:35:56.450Z,776.00
2023-05-14T07:36:56.526Z,777.00
2023-05-14T07:37:56.580Z,772.00
2023-05-14T07:38:56.654Z,778.00
2023-05-14T07:39:56.726Z,771.00
2023-05-14T07:40:56.786Z,775.00
2023-05-14T07:41:56.862Z,764.00
2023-05-14T07:42:56.923Z,760.00
2023-05-14T07:43:56.978Z,762.00
2023-05-14T07:44:57.032Z,767.00
2023-05-14T07:45:57.089Z,765.00
2023-05-14T07:46:57.181Z,760.00
2023-05-14T07:47:57.355Z,768.00
2023-05-14T07:48:57.282Z,759.00
2023-05-14T07:49:57.347Z,757.00
2023-05-14T07:50:57.405Z,761.00
2023-05-14T07:51:57.466Z,761.00
2023-05-14T07:52:57.514Z,759.00
2023-05-14T07:53:57.558Z,746.00
2023-05-14T07:54:57.618Z,759.00
2023-05-14T07:55:57.665Z,752.00
2023-05-14T07:56:57.718Z,743.00
2023-05-14T07:57:57.775Z,753.00
2023-05-14T07:58:57.865Z,743.00
2023-05-14T07:59:57.878Z,744.00
2023-05-14T08:00:57.926Z,743.00
2023-05-14T08:01:57.981Z,736.00
2023-05-14T08:02:58.206Z,732.00
2023-05-14T08:03:58.159Z,750.00
2023-05-14T08:04:58.121Z,734.00
2023-05-14T08:05:58.168Z,730.00
2023-05-14T08:06:58.218Z,733.00
2023-05-14T08:07:58.257Z,720.00
2023-05-14T08:08:58.302Z,721.00
2023-05-14T08:09:58.340Z,724.00
2023-05-14T08:10:58.432Z,723.00
2023-05-14T08:11:58.417Z,717.00
2023-05-14T08:12:58.451Z,725.00
2023-05-14T08:13:58.508Z,718.00
2023-05-14T08:14:58.512Z,715.00
2023-05-14T08:15:58.540Z,712.00
2023-05-14T08:16:58.632Z,707.00
2023-05-14T08:17:58.714Z,703.00
2023-05-14T08:18:58.714Z,697.00
2023-05-14T08:19:58.635Z,696.00
2023-05-14T08:20:58.666Z,700.00
2023-05-14T08:21:58.729Z,687.00
2023-05-14T08:22:58.746Z,696.00
2023-05-14T08:23:58.764Z,692.00
2023-05-14T08:24:58.771Z,692.00
2023-05-14T08:25:58.804Z,692.00
2023-05-14T08:26:58.819Z,674.00
2023-05-14T08:27:58.870Z,677.00
2023-05-14T08:28:58.934Z,678.00
2023-05-14T08:29:58.973Z,667.00
2023-05-14T08:30:59.085Z,670.00
2023-05-14T08:32:00.330Z,675.00
2023-05-14T08:32:59.134Z,676.00
2023-05-14T08:33:59.137Z,678.00
2023-05-14T08:34:59.135Z,684.00
2023-05-14T08:35:59.132Z,678.00
2023-05-14T08:36:59.144Z,672.00
2023-05-14T08:37:59.159Z,665.00
2023-05-14T08:38:59.172Z,667.00
2023-05-14T08:39:59.176Z,672.00
2023-05-14T08:40:59.191Z,666.00
2023-05-14T08:41:59.196Z,665.00
2023-05-14T08:42:59.203Z,663.00
2023-05-14T08:43:59.201Z,663.00
2023-05-14T08:44:59.205Z,667.00
2023-05-14T08:45:59.204Z,661.00
2023-05-14T08:46:59.208Z,662.00
2023-05-14T08:47:59.362Z,664.00
2023-05-14T08:48:59.355Z,664.00
2023-05-14T08:49:59.402Z,672.00
2023-05-14T08:50:59.475Z,663.00
2023-05-14T08:51:59.550Z,670.00
2023-05-14T08:52:59.584Z,662.00
2023-05-14T08:53:59.638Z,664.00
2023-05-14T08:54:59.670Z,661.00
2023-05-14T08:55:59.716Z,661.00
2023-05-14T08:56:59.767Z,663.00
2023-05-14T08:57:59.832Z,662.00
2023-05-14T08:58:59.881Z,664.00
2023-05-14T08:59:59.950Z,661.00
2023-05-14T09:01:00.002Z,662.00
2023-05-14T09:02:00.059Z,660.00
2023-05-14T09:03:00.138Z,665.00
2023-05-14T09:04:01.134Z,665.00
2023-05-14T09:05:00.194Z,665.00
2023-05-14T09:06:00.387Z,666.00
2023-05-14T09:07:00.121Z,666.00
2023-05-14T09:08:00.110Z,667.00
2023-05-14T09:09:00.139Z,666.00
2023-05-14T09:10:00.115Z,668.00
2023-05-14T09:11:00.157Z,668.00
2023-05-14T09:12:00.133Z,670.00
2023-05-14T09:13:00.123Z,666.00
2023-05-14T09:14:00.127Z,663.00
2023-05-14T09:15:00.145Z,675.00
2023-05-14T09:16:00.183Z,671.00
2023-05-14T09:17:00.191Z,666.00
2023-05-14T09:18:00.344Z,670.00
2023-05-14T09:19:00.371Z,668.00
2023-05-14T09:20:00.343Z,667.00
2023-05-14T09:21:00.365Z,665.00
2023-05-14T09:22:00.405Z,674.00
2023-05-14T09:23:00.461Z,673.00
2023-05-14T09:24:00.472Z,669.00
2023-05-14T09:25:00.520Z,675.00
2023-05-14T09:26:00.523Z,664.00
2023-05-14T09:27:00.563Z,666.00
2023-05-14T09:28:00.574Z,671.00
2023-05-14T09:29:00.616Z,669.00
2023-05-14T09:30:00.626Z,668.00
2023-05-14T09:31:00.654Z,671.00
2023-05-14T09:32:00.730Z,678.00
2023-05-14T09:33:00.819Z,678.00
2023-05-14T09:34:00.798Z,679.00
2023-05-14T09:35:00.879Z,677.00
2023-05-14T09:36:00.934Z,672.00
2023-05-14T09:37:00.958Z,675.00
2023-05-14T09:38:00.964Z,673.00
2023-05-14T09:39:00.996Z,674.00
2023-05-14T09:40:01.027Z,684.00
2023-05-14T09:41:01.073Z,678.00
2023-05-14T09:42:01.133Z,675.00
2023-05-14T09:43:01.155Z,680.00
2023-05-14T09:44:01.195Z,666.00
2023-05-14T09:45:01.261Z,669.00
2023-05-14T09:46:01.295Z,665.00
2023-05-14T09:47:01.374Z,674.00
2023-05-14T09:48:01.573Z,677.00
2023-05-14T09:49:01.452Z,666.00
2023-05-14T09:50:01.504Z,667.00
2023-05-14T09:51:04.020Z,673.00
2023-05-14T09:52:01.569Z,688.00
2023-05-14T09:53:01.579Z,681.00
2023-05-14T09:54:01.587Z,666.00
2023-05-14T09:55:01.597Z,675.00
2023-05-14T09:56:01.614Z,672.00
2023-05-14T09:57:01.606Z,667.00
2023-05-14T09:58:01.599Z,674.00
2023-05-14T09:59:01.608Z,669.00
2023-05-14T10:00:01.630Z,678.00
2023-05-14T10:01:01.665Z,671.00
2023-05-14T10:02:01.639Z,673.00
2023-05-14T10:03:01.671Z,673.00
2023-05-14T10:04:01.721Z,681.00
2023-05-14T10:05:01.660Z,683.00
2023-05-14T10:06:01.670Z,678.00
2023-05-14T10:07:01.678Z,678.00
2023-05-14T10:08:01.683Z,685.00
2023-05-14T10:09:01.697Z,671.00
2023-05-14T10:10:01.728Z,676.00
2023-05-14T10:11:01.706Z,676.00
2023-05-14T10:12:01.738Z,678.00
2023-05-14T10:13:01.733Z,669.00
2023-05-14T10:14:01.744Z,682.00
2023-05-14T10:15:01.769Z,686.00
2023-05-14T10:16:01.772Z,688.00
2023-05-14T10:17:01.852Z,674.00
2023-05-14T10:18:01.846Z,679.00
2023-05-14T10:19:01.817Z,674.00
2023-05-14T10:20:01.792Z,678.00
2023-05-14T10:21:01.796Z,687.00
2023-05-14T10:22:01.824Z,692.00
2023-05-14T10:23:01.821Z,690.00
2023-05-14T10:24:01.861Z,686.00
2023-05-14T10:25:01.828Z,675.00
2023-05-14T10:26:01.830Z,681.00
2023-05-14T10:27:01.840Z,689.00
2023-05-14T10:28:01.863Z,683.00
2023-05-14T10:29:01.863Z,687.00
2023-05-14T10:30:01.866Z,687.00
2023-05-14T10:31:01.934Z,687.00
2023-05-14T10:32:01.886Z,695.00
2023-05-14T10:33:01.963Z,690.00
2023-05-14T10:34:01.904Z,692.00
2023-05-14T10:35:01.903Z,690.00
2023-05-14T10:36:01.906Z,682.00
2023-05-14T10:37:01.925Z,695.00
2023-05-14T10:38:01.934Z,686.00
2023-05-14T10:39:01.930Z,687.00
2023-05-14T10:40:01.937Z,701.00
2023-05-14T10:41:01.935Z,690.00
2023-05-14T10:42:01.945Z,698.00
2023-05-14T10:43:01.948Z,694.00
2023-05-14T10:44:01.951Z,694.00
2023-05-14T10:45:01.990Z,694.00
2023-05-14T10:46:01.960Z,697.00
2023-05-14T10:47:02.103Z,693.00
2023-05-14T10:48:02.013Z,694.00
2023-05-14T10:49:01.966Z,692.00
2023-05-14T10:50:01.981Z,698.00
2023-05-14T10:51:02.051Z,692.00
2023-05-14T10:52:01.991Z,692.00
2023-05-14T10:53:02.003Z,684.00
2023-05-14T10:54:02.008Z,679.00
2023-05-14T10:55:03.386Z,680.00
2023-05-14T10:56:02.003Z,689.00
2023-05-14T10:57:02.003Z,693.00
2023-05-14T10:58:02.013Z,686.00
2023-05-14T10:59:02.003Z,681.00
2023-05-14T11:00:02.010Z,693.00
2023-05-14T11:01:02.009Z,688.00
2023-05-14T11:02:02.058Z,694.00
2023-05-14T11:03:02.068Z,683.00
2023-05-14T11:04:02.045Z,685.00
2023-05-14T11:05:02.006Z,687.00
2023-05-14T11:06:01.985Z,687.00
2023-05-14T11:07:01.992Z,683.00
2023-05-14T11:08:01.993Z,690.00
2023-05-14T11:09:02.001Z,690.00
2023-05-14T11:10:01.993Z,698.00
2023-05-14T11:11:02.076Z,691.00
2023-05-14T11:12:02.015Z,689.00
2023-05-14T11:13:02.010Z,699.00
2023-05-14T11:14:02.012Z,682.00
2023-05-14T11:15:02.023Z,687.00
2023-05-14T11:16:08.728Z,697.00
2023-05-14T11:17:03.079Z,697.00
2023-05-14T11:18:02.045Z,698.00
2023-05-14T11:19:02.086Z,699.00
2023-05-14T11:20:02.036Z,694.00
2023-05-14T11:21:02.080Z,693.00
2023-05-14T11:22:02.050Z,689.00
2023-05-14T11:23:02.058Z,688.00
2023-05-14T11:24:02.061Z,681.00
2023-05-14T11:25:02.070Z,682.00
2023-05-14T11:26:02.117Z,686.00
2023-05-14T11:27:02.077Z,696.00
2023-05-14T11:28:02.094Z,683.00
2023-05-14T11:29:02.065Z,692.00
2023-05-14T11:30:02.089Z,679.00
2023-05-14T11:31:02.086Z,687.00
2023-05-14T11:32:02.187Z,688.00
2023-05-14T11:33:02.355Z,685.00
2023-05-14T11:34:02.085Z,682.00
2023-05-14T11:35:02.067Z,692.00
2023-05-14T11:36:02.067Z,687.00
2023-05-14T11:37:02.074Z,680.00
2023-05-14T11:38:02.128Z,682.00
2023-05-14T11:39:02.073Z,691.00
2023-05-14T11:40:02.101Z,687.00
2023-05-14T11:41:02.087Z,680.00
2023-05-14T11:42:02.098Z,686.00
2023-05-14T11:43:02.117Z,692.00
2023-05-14T11:44:02.114Z,689.00
2023-05-14T11:45:02.112Z,678.00
2023-05-14T11:46:02.183Z,684.00
2023-05-14T11:47:02.159Z,675.00
2023-05-14T11:48:02.186Z,680.00
2023-05-14T11:49:02.154Z,682.00
2023-05-14T11:50:02.161Z,687.00
2023-05-14T11:51:02.180Z,667.00
2023-05-14T11:52:02.196Z,686.00
2023-05-14T11:53:02.203Z,689.00
2023-05-14T11:54:02.219Z,679.00
2023-05-14T11:55:02.241Z,673.00
2023-05-14T11:56:02.241Z,684.00
2023-05-14T11:57:02.258Z,681.00
2023-05-14T11:58:02.276Z,683.00
2023-05-14T11:59:02.307Z,682.00
2023-05-14T12:00:02.298Z,677.00
2023-05-14T12:01:02.322Z,687.00
2023-05-14T12:02:02.413Z,673.00
2023-05-14T12:03:02.401Z,679.00
2023-05-14T12:04:02.515Z,665.00
2023-05-14T12:05:02.376Z,676.00
2023-05-14T12:06:02.374Z,671.00
2023-05-14T12:07:02.399Z,675.00
2023-05-14T12:08:02.410Z,679.00
2023-05-14T12:09:02.430Z,681.00
2023-05-14T12:10:02.429Z,673.00
2023-05-14T12:11:02.434Z,670.00
2023-05-14T12:12:02.475Z,680.00
2023-05-14T12:13:02.474Z,689.00
2023-05-14T12:14:02.493Z,667.00
2023-05-14T12:15:02.505Z,679.00
2023-05-14T12:16:02.648Z,685.00
2023-05-14T12:17:02.543Z,677.00
2023-05-14T12:18:03.058Z,689.00
2023-05-14T12:19:02.645Z,682.00
2023-05-14T12:20:02.634Z,688.00
2023-05-14T12:21:02.647Z,690.00
2023-05-14T12:22:02.682Z,691.00
2023-05-14T12:23:02.685Z,680.00
2023-05-14T12:24:02.707Z,676.00
2023-05-14T12:25:02.725Z,690.00
2023-05-14T12:26:02.723Z,694.00
2023-05-14T12:27:02.782Z,687.00
2023-05-14T12:28:02.826Z,690.00
2023-05-14T12:29:02.779Z,692.00
2023-05-14T12:30:19.212Z,686.00